Time;durP1;ratioP1;P1;durP2;ratioP2;P2;SDS_P1;SDS_P2;PMS_P1;PMS_P2;Temp;Humidity;BMP_temperature;BMP_pressure;BME280_temperature;BME280_humidity;BME280_pressure;Samples;Min_cycle;Max_cycle;Signal;HPM_P1;HPM_P2
2023/09/08 00:02:52;;;;;;;;;;;22.10;41.60;;;21.61;41.38;101889.03;12147553;19;19919;-86
2023/09/08 00:06:53;;;;;;;;;;;22.00;41.60;;;21.57;41.29;101892.91;12144439;19;20368;-86
2023/09/08 00:10:56;;;;;;;;;;;22.00;41.60;;;21.54;41.08;101889.66;12152342;19;19943;-86
2023/09/08 00:14:57;;;;;;;;;;;22.00;41.60;;;21.48;41.27;101877.72;12148688;19;19975;-86
2023/09/08 00:18:58;;;;;;;;;;;21.90;41.70;;;21.33;41.21;101866.53;12149143;19;20005;-86
2023/09/08 00:23:00;;;;;;;;;;;21.90;41.80;;;21.29;41.36;101870.41;12141243;19;20271;-85
2023/09/08 00:27:02;;;;;;;;;;;21.80;41.70;;;21.29;41.50;101872.22;12146885;19;19976;-85
2023/09/08 00:31:04;;;;;;;;;;;21.70;41.80;;;21.14;41.42;101863.69;12138479;19;19926;-85
2023/09/08 00:35:07;;;;;;;;;;;21.70;41.70;;;21.10;41.26;101863.09;12131740;19;19934;-85
2023/09/08 00:39:09;;;;;;;;;;;21.60;41.90;;;21.07;41.62;101863.34;12131272;19;19915;-86
2023/09/08 00:43:10;;;;;;;;;;;21.50;41.90;;;20.94;41.87;101849.38;12135487;19;19930;-85
2023/09/08 00:47:12;;;;;;;;;;;21.50;41.90;;;21.00;41.59;101867.47;12127412;19;19915;-85
2023/09/08 00:51:14;;;;;;;;;;;21.50;41.90;;;20.95;41.79;101853.72;12129818;19;19925;-85
2023/09/08 00:55:16;;;;;;;;;;;21.40;42.00;;;20.92;41.79;101854.81;12129174;19;19931;-85
2023/09/08 00:59:18;;;;;;;;;;;21.40;42.00;;;20.92;41.77;101868.09;12129855;19;19980;-85
2023/09/08 01:03:20;;;;;;;;;;;21.40;42.10;;;20.88;41.78;101874.63;12126454;19;19919;-85
2023/09/08 01:07:21;;;;;;;;;;;21.40;42.10;;;20.81;41.83;101868.13;12126497;19;19918;-86
2023/09/08 01:11:23;;;;;;;;;;;21.40;42.00;;;20.79;42.03;101862.06;12130883;19;21011;-85
2023/09/08 01:15:25;;;;;;;;;;;21.30;42.00;;;20.76;41.94;101860.50;12127731;19;19923;-85
2023/09/08 01:19:27;;;;;;;;;;;21.30;42.10;;;20.75;42.15;101864.16;12129981;19;19935;-86
2023/09/08 01:23:50;;;;;;;;;;;21.20;42.10;;;20.64;41.79;101850.88;12128916;19;20754;-85
2023/09/08 01:27:57;;;;;;;;;;;21.20;42.10;;;20.63;42.09;101856.31;12124948;19;20768;-85
2023/09/08 01:31:58;;;;;;;;;;;21.20;42.10;;;20.58;42.20;101851.38;12131373;19;19927;-85
2023/09/08 01:36:01;;;;;;;;;;;21.10;42.20;;;20.60;42.08;101860.06;12125203;19;19922;-85
2023/09/08 01:40:03;;;;;;;;;;;21.10;42.20;;;20.54;42.20;101849.94;12130742;19;20625;-86
2023/09/08 01:44:07;;;;;;;;;;;21.10;42.30;;;20.48;42.44;101839.78;12138038;19;19934;-85
2023/09/08 01:48:09;;;;;;;;;;;21.00;42.50;;;20.43;42.30;101839.28;12139039;19;19923;-86
2023/09/08 01:52:11;;;;;;;;;;;21.00;42.30;;;20.39;42.07;101849.31;12139939;19;19918;-86
2023/09/08 01:56:13;;;;;;;;;;;20.90;42.30;;;20.35;42.30;101853.16;12133529;19;19940;-85
2023/09/08 02:00:15;;;;;;;;;;;20.90;42.40;;;20.20;42.49;101835.78;12128150;19;19929;-85
2023/09/08 02:04:17;;;;;;;;;;;20.80;42.30;;;20.16;42.15;101835.19;12125212;19;19941;-86
2023/09/08 02:08:18;;;;;;;;;;;20.70;42.40;;;20.04;42.58;101825.56;12127190;19;19919;-85
2023/09/08 02:12:21;;;;;;;;;;;20.60;42.50;;;20.02;42.45;101836.28;12127101;19;19919;-86
2023/09/08 02:16:23;;;;;;;;;;;20.60;42.40;;;20.02;42.66;101844.22;12139525;19;19943;-85
2023/09/08 02:20:26;;;;;;;;;;;20.60;42.50;;;19.98;42.70;101828.66;12150818;19;19922;-85
2023/09/08 02:24:27;;;;;;;;;;;20.50;42.50;;;19.96;42.27;101830.63;12148507;19;20359;-85
2023/09/08 02:28:30;;;;;;;;;;;20.50;42.60;;;19.97;42.35;101835.78;12141874;19;19929;-85
2023/09/08 02:32:32;;;;;;;;;;;20.40;42.60;;;19.89;42.55;101823.09;12153690;19;20751;-85
2023/09/08 02:36:34;;;;;;;;;;;20.40;42.60;;;19.91;42.93;101833.59;12151261;19;20776;-85
2023/09/08 02:40:36;;;;;;;;;;;20.40;42.60;;;19.91;42.73;101840.72;12156633;19;19953;-85
2023/09/08 02:44:38;;;;;;;;;;;20.40;42.60;;;19.86;42.55;101827.81;12145224;19;19939;-85
2023/09/08 02:48:40;;;;;;;;;;;20.40;42.60;;;19.83;42.78;101817.44;12141959;19;19919;-86
2023/09/08 02:52:42;;;;;;;;;;;20.40;42.70;;;19.75;42.71;101799.47;12146184;19;19922;-85
2023/09/08 02:56:44;;;;;;;;;;;20.40;42.70;;;19.72;42.69;101810.31;12143005;19;20892;-86
2023/09/08 03:00:46;;;;;;;;;;;20.30;42.70;;;19.79;42.84;101822.13;12144623;19;20004;-85
2023/09/08 03:04:47;;;;;;;;;;;20.30;42.60;;;19.68;42.76;101806.19;12143998;19;19929;-86
2023/09/08 03:08:49;;;;;;;;;;;20.30;42.60;;;19.74;43.14;101812.84;12144608;19;21045;-85
2023/09/08 03:12:50;;;;;;;;;;;20.30;42.70;;;19.62;43.14;101806.66;12147949;19;20295;-85
2023/09/08 03:16:52;;;;;;;;;;;20.20;42.60;;;19.65;43.10;101806.41;12142681;19;19922;-86
2023/09/08 03:20:53;;;;;;;;;;;20.20;42.60;;;19.52;43.22;101792.41;12145961;19;19922;-86
2023/09/08 03:24:55;;;;;;;;;;;20.20;42.70;;;19.61;43.12;101818.22;12143499;19;19919;-85
2023/09/08 03:28:57;;;;;;;;;;;20.20;42.60;;;19.58;43.08;101803.41;12143447;19;19922;-86
2023/09/08 03:32:59;;;;;;;;;;;20.20;42.70;;;19.54;43.28;101799.28;12146844;19;19917;-85
2023/09/08 03:37:01;;;;;;;;;;;20.20;42.70;;;19.55;43.37;101814.22;12142008;19;19930;-86
2023/09/08 03:41:02;;;;;;;;;;;20.10;42.70;;;19.41;43.00;101796.69;12146985;19;20232;-86
2023/09/08 03:45:04;;;;;;;;;;;20.10;42.70;;;19.40;43.08;101800.31;12143438;19;19943;-85
2023/09/08 03:49:07;;;;;;;;;;;20.10;42.70;;;19.40;43.29;101808.28;12146282;19;19927;-85
2023/09/08 03:53:10;;;;;;;;;;;20.00;42.70;;;19.31;43.31;101806.31;12145719;19;20355;-85
2023/09/08 03:57:11;;;;;;;;;;;19.90;42.70;;;19.21;43.18;101800.84;12139604;19;20754;-85
2023/09/08 04:01:13;;;;;;;;;;;19.90;42.80;;;19.19;43.13;101791.34;12146054;19;19919;-85
2023/09/08 04:05:18;;;;;;;;;;;19.80;42.80;;;19.16;43.36;101808.31;12140974;19;20217;-85
2023/09/08 04:09:20;;;;;;;;;;;19.80;42.90;;;19.10;43.27;101807.91;12139420;19;19964;-85
2023/09/08 04:13:21;;;;;;;;;;;19.70;42.90;;;19.00;43.35;101802.44;12142254;19;20216;-85
2023/09/08 04:17:23;;;;;;;;;;;19.70;43.00;;;19.00;43.23;101805.94;12139313;19;19948;-85
2023/09/08 04:21:24;;;;;;;;;;;19.60;43.00;;;18.95;43.31;101805.44;12142799;19;19911;-85
2023/09/08 04:25:25;;;;;;;;;;;19.60;43.10;;;18.88;43.59;101806.84;12142155;19;19980;-86
2023/09/08 04:29:27;;;;;;;;;;;19.60;43.10;;;18.88;43.43;101817.44;12143504;19;20021;-86
2023/09/08 04:33:29;;;;;;;;;;;19.50;43.20;;;18.73;43.79;101794.69;12141977;19;20187;-86
2023/09/08 04:37:31;;;;;;;;;;;19.50;43.20;;;18.75;43.71;101806.88;12140874;19;19930;-86
2023/09/08 04:41:33;;;;;;;;;;;19.50;43.30;;;18.74;43.72;101810.50;12143173;19;19923;-86
2023/09/08 04:45:34;;;;;;;;;;;19.40;43.40;;;18.73;43.56;101818.50;12142548;19;20256;-86
2023/09/08 04:49:37;;;;;;;;;;;19.40;43.40;;;18.40;43.60;101771.53;12142816;19;19930;-86
2023/09/08 04:53:39;;;;;;;;;;;19.30;43.30;;;18.68;43.56;101815.34;12143404;19;19972;-86
2023/09/08 04:57:41;;;;;;;;;;;19.30;43.40;;;18.71;43.61;101823.06;12140645;19;20376;-86
2023/09/08 05:01:43;;;;;;;;;;;19.30;43.40;;;18.60;43.83;101810.59;12146338;19;20355;-86
2023/09/08 05:05:45;;;;;;;;;;;19.30;43.50;;;18.68;43.64;101818.81;12139905;19;19927;-86
2023/09/08 05:09:48;;;;;;;;;;;19.40;43.60;;;18.73;43.97;101831.75;12143581;19;20768;-86
2023/09/08 05:13:50;;;;;;;;;;;19.40;43.60;;;18.66;44.03;101819.91;12140341;19;19919;-86
2023/09/08 05:17:52;;;;;;;;;;;19.30;43.70;;;18.72;43.85;101840.66;12121496;19;20404;-86
2023/09/08 05:21:56;;;;;;;;;;;19.40;43.70;;;18.67;43.93;101829.53;12125084;19;19931;-86
2023/09/08 05:25:59;;;;;;;;;;;19.40;43.70;;;18.65;43.96;101834.09;12118173;19;19939;-86
2023/09/08 05:30:01;;;;;;;;;;;19.40;43.80;;;18.58;44.14;101823.97;12122427;19;20841;-87
2023/09/08 05:34:05;;;;;;;;;;;19.40;43.90;;;18.65;44.10;101834.09;12119876;19;20670;-87
2023/09/08 05:38:07;;;;;;;;;;;19.30;43.80;;;18.60;44.10;101825.63;12119950;19;20038;-87
2023/09/08 05:42:09;;;;;;;;;;;19.30;43.80;;;18.62;44.08;101834.31;12122096;19;20394;-89
2023/09/08 05:46:10;;;;;;;;;;;19.30;43.90;;;18.48;44.13;101812.34;12120478;19;19919;-89
2023/09/08 05:50:13;;;;;;;;;;;19.30;43.90;;;18.56;44.24;101825.03;12122606;19;19918;-87
2023/09/08 05:54:15;;;;;;;;;;;19.30;44.00;;;18.60;44.35;101831.75;12122757;19;19951;-87
2023/09/08 05:58:17;;;;;;;;;;;19.30;44.10;;;18.60;44.36;101825.63;12118513;19;19954;-87
2023/09/08 06:02:18;;;;;;;;;;;19.30;44.40;;;18.60;44.31;101825.63;12124306;19;20704;-86
2023/09/08 06:06:21;;;;;;;;;;;19.40;44.40;;;18.64;44.29;101832.41;12119504;19;20393;-89
2023/09/08 06:10:23;;;;;;;;;;;19.40;44.80;;;18.70;44.76;101818.72;12131420;19;19919;-87
2023/09/08 06:14:25;;;;;;;;;;;19.40;45.00;;;18.79;44.70;101828.69;12133173;19;20954;-86
2023/09/08 06:18:28;;;;;;;;;;;19.50;45.00;;;18.83;44.75;101816.09;12125824;19;20423;-87
2023/09/08 06:22:30;;;;;;;;;;;19.60;45.00;;;18.95;44.75;101812.53;12121652;19;19990;-87
2023/09/08 06:26:31;;;;;;;;;;;19.70;45.20;;;19.08;44.73;101823.91;12120007;19;19934;-87
2023/09/08 06:30:34;;;;;;;;;;;19.80;45.40;;;19.14;45.04;101820.78;12120987;19;20503;-86
2023/09/08 06:34:37;;;;;;;;;;;19.90;45.30;;;19.25;45.03;101814.72;12119625;19;19956;-87
2023/09/08 06:38:39;;;;;;;;;;;20.10;45.40;;;19.15;45.03;101780.13;12121085;19;19931;-86
2023/09/08 06:42:41;;;;;;;;;;;20.20;45.30;;;19.43;45.07;101818.63;12129623;19;20199;-87
2023/09/08 06:46:50;;;;;;;;;;;20.30;45.20;;;19.62;45.02;101830.50;12135732;19;19931;-87
2023/09/08 06:50:56;;;;;;;;;;;20.40;45.80;;;19.72;45.00;101820.91;12133837;19;20844;-87
2023/09/08 06:54:59;;;;;;;;;;;20.50;45.60;;;19.82;45.04;101827.22;12124374;19;19918;-87
2023/09/08 06:59:01;;;;;;;;;;;20.70;45.40;;;19.93;45.05;101818.44;12132534;19;19923;-87
2023/09/08 07:03:05;;;;;;;;;;;20.80;45.70;;;19.97;45.29;101808.44;12134415;19;20008;-87
2023/09/08 07:07:07;;;;;;;;;;;21.00;45.90;;;20.06;45.33;101805.91;12144782;19;20812;-87
2023/09/08 07:11:11;;;;;;;;;;;21.00;45.60;;;20.26;45.32;101820.25;12139063;19;19955;-87
2023/09/08 07:15:12;;;;;;;;;;;21.20;46.00;;;20.42;45.24;101819.88;12127940;19;19950;-87
2023/09/08 07:19:14;;;;;;;;;;;21.30;45.70;;;20.57;45.68;101833.75;12127782;19;19921;-86
2023/09/08 07:23:19;;;;;;;;;;;21.40;46.10;;;20.71;45.72;101830.88;12136359;19;19922;-87
2023/09/08 07:27:21;;;;;;;;;;;21.60;45.40;;;20.74;45.61;101809.38;12129916;19;19926;-87
2023/09/08 07:31:23;;;;;;;;;;;21.80;46.40;;;20.92;45.92;101811.47;12145140;19;19918;-87
2023/09/08 07:35:25;;;;;;;;;;;21.90;45.60;;;21.10;45.43;101820.59;12123065;19;20430;-87
2023/09/08 07:39:27;;;;;;;;;;;22.00;46.00;;;21.12;45.54;101789.44;12137656;19;19918;-86
2023/09/08 07:43:29;;;;;;;;;;;22.20;45.90;;;21.50;45.47;101822.63;12241562;19;19951;-87
2023/09/08 07:47:31;;;;;;;;;;;22.40;45.90;;;21.69;45.66;101810.44;12246735;19;20355;-87
2023/09/08 07:51:32;;;;;;;;;;;22.70;46.10;;;21.93;46.10;101824.31;12251721;19;19922;-84
2023/09/08 07:55:34;;;;;;;;;;;22.90;46.00;;;22.16;46.17;101818.81;12246718;19;19927;-84
2023/09/08 07:59:35;;;;;;;;;;;23.10;46.10;;;22.42;45.82;101824.56;12246885;19;19919;-84
2023/09/08 08:03:37;;;;;;;;;;;23.40;46.20;;;22.57;45.80;101812.53;12247402;19;19919;-84
2023/09/08 08:07:39;;;;;;;;;;;23.60;46.00;;;22.83;45.87;101812.03;12249598;19;20317;-84
2023/09/08 08:11:41;;;;;;;;;;;23.90;46.10;;;23.13;46.07;101821.75;12247846;19;19923;-83
2023/09/08 08:15:45;;;;;;;;;;;24.20;46.00;;;23.32;46.18;101811.09;12244398;19;20736;-83
2023/09/08 08:19:47;;;;;;;;;;;24.50;45.90;;;23.70;45.87;101821.84;12245484;19;20264;-83
2023/09/08 08:23:49;;;;;;;;;;;24.80;45.70;;;23.98;45.63;101826.31;12245743;19;19975;-85
2023/09/08 08:27:50;;;;;;;;;;;25.10;45.90;;;24.16;46.04;101812.19;12244423;19;19915;-84
2023/09/08 08:31:52;;;;;;;;;;;25.30;45.50;;;24.36;45.84;101805.78;12247985;19;19923;-84
2023/09/08 08:35:53;;;;;;;;;;;25.50;45.60;;;24.55;45.53;101798.66;12245535;19;20344;-84
2023/09/08 08:39:55;;;;;;;;;;;25.80;45.10;;;24.86;46.06;101804.50;12249896;19;20325;-85
2023/09/08 08:43:58;;;;;;;;;;;26.00;44.80;;;25.10;45.53;101804.72;12249583;19;19923;-84
2023/09/08 08:48:00;;;;;;;;;;;26.30;44.80;;;25.30;45.49;101797.41;12248546;19;20350;-84
2023/09/08 08:52:06;;;;;;;;;;;26.50;44.70;;;25.57;45.46;101803.59;12246202;19;20369;-85
2023/09/08 08:56:09;;;;;;;;;;;26.70;44.30;;;25.56;45.42;101776.03;12246242;19;20002;-85
2023/09/08 09:00:12;;;;;;;;;;;26.90;43.70;;;26.00;45.64;101808.06;12246160;19;19922;-85
2023/09/08 09:04:15;;;;;;;;;;;27.10;43.80;;;26.20;45.26;101807.84;12246116;19;19927;-84
2023/09/08 09:08:18;;;;;;;;;;;27.30;43.90;;;26.31;45.44;101796.03;12240670;19;19923;-84
2023/09/08 09:12:20;;;;;;;;;;;27.50;44.10;;;26.55;45.14;101806.84;12245910;19;20286;-84
2023/09/08 09:16:21;;;;;;;;;;;27.70;43.90;;;26.74;45.10;101812.91;12241011;19;20007;-84
2023/09/08 09:20:23;;;;;;;;;;;27.90;43.90;;;26.91;45.18;101804.72;12237789;19;20482;-82
2023/09/08 09:24:33;;;;;;;;;;;28.00;42.80;;;26.84;45.17;101768.88;12236737;19;19967;-83
2023/09/08 09:28:46;;;;;;;;;;;28.20;43.70;;;27.27;45.18;101801.75;12216881;19;19985;-83
2023/09/08 09:32:49;;;;;;;;;;;28.40;43.40;;;27.48;45.09;101808.44;12239386;19;19923;-82
2023/09/08 09:36:51;;;;;;;;;;;28.60;43.60;;;27.63;45.02;101793.34;12237006;19;19930;-82
2023/09/08 09:40:53;;;;;;;;;;;28.80;42.90;;;27.78;44.70;101801.50;12235679;19;19923;-83
2023/09/08 09:44:55;;;;;;;;;;;28.90;43.60;;;27.86;44.89;101787.25;12235172;19;19922;-82
2023/09/08 09:48:59;;;;;;;;;;;29.10;42.90;;;28.06;44.67;101791.22;12239106;19;20665;-82
2023/09/08 09:53:09;;;;;;;;;;;29.20;43.10;;;28.16;45.09;101783.78;12240847;19;19922;-82
2023/09/08 09:57:13;;;;;;;;;;;29.40;43.10;;;28.33;44.90;101789.09;12239561;19;19921;-82
2023/09/08 10:01:15;;;;;;;;;;;29.50;43.10;;;28.44;44.44;101778.81;12241321;19;20265;-82
2023/09/08 10:05:16;;;;;;;;;;;29.60;41.30;;;28.58;44.40;101776.38;12241099;19;19915;-83
2023/09/08 10:09:19;;;;;;;;;;;29.80;42.70;;;28.73;44.43;101781.81;12241042;19;19943;-83
2023/09/08 10:13:28;;;;;;;;;;;29.90;41.90;;;28.83;44.29;101777.88;12241217;19;19915;-83
2023/09/08 10:17:30;;;;;;;;;;;29.90;41.40;;;28.92;43.90;101773.28;12241597;19;20301;-82
2023/09/08 10:21:33;;;;;;;;;;;30.00;41.60;;;28.98;44.01;101764.50;12240330;19;19923;-82
2023/09/08 10:25:41;;;;;;;;;;;30.10;42.10;;;29.18;44.12;101764.03;12239379;19;19919;-82
2023/09/08 10:29:42;;;;;;;;;;;30.20;41.90;;;29.23;44.02;101753.56;12242255;19;19919;-82
2023/09/08 10:33:44;;;;;;;;;;;30.30;42.30;;;29.29;43.66;101744.75;12240347;19;19982;-83
2023/09/08 10:37:46;;;;;;;;;;;30.40;40.80;;;29.38;43.85;101750.88;12245415;19;19914;-82
2023/09/08 10:41:48;;;;;;;;;;;30.50;42.00;;;29.50;43.28;101752.94;12244553;19;20360;-82
2023/09/08 10:45:50;;;;;;;;;;;30.50;40.70;;;29.64;43.35;101761.22;12248580;19;20357;-82
2023/09/08 10:49:53;;;;;;;;;;;30.60;41.80;;;29.74;43.14;101757.25;12248422;19;19929;-82
2023/09/08 10:53:55;;;;;;;;;;;30.70;42.00;;;29.75;43.13;101740.06;12250812;19;20009;-82
2023/09/08 10:57:57;;;;;;;;;;;30.80;41.50;;;29.88;43.36;101747.47;12249220;19;19914;-82
2023/09/08 11:02:02;;;;;;;;;;;30.90;42.00;;;30.03;42.91;101746.63;12241721;19;19955;-82
2023/09/08 11:06:05;;;;;;;;;;;31.00;41.50;;;30.13;42.84;101744.47;12238493;19;19929;-82
2023/09/08 11:10:08;;;;;;;;;;;31.10;41.90;;;30.30;42.84;101747.78;12247238;19;19938;-82
2023/09/08 11:14:09;;;;;;;;;;;31.20;41.90;;;30.36;42.74;101738.97;12245127;19;19926;-81
2023/09/08 11:18:10;;;;;;;;;;;31.30;40.70;;;30.39;42.60;101736.72;12244976;19;19974;-82
2023/09/08 11:22:12;;;;;;;;;;;31.40;40.00;;;30.47;42.72;101730.38;12247648;19;19911;-82
2023/09/08 11:26:14;;;;;;;;;;;31.50;40.90;;;30.54;42.29;101727.72;12251484;19;19923;-83
2023/09/08 11:30:15;;;;;;;;;;;31.50;41.40;;;30.68;42.30;101729.56;12248546;19;19914;-82
2023/09/08 11:34:17;;;;;;;;;;;31.60;40.40;;;30.70;42.33;101722.06;12245751;19;19930;-82
2023/09/08 11:38:24;;;;;;;;;;;31.60;40.60;;;30.83;42.18;101741.09;12244003;19;20374;-82
2023/09/08 11:42:25;;;;;;;;;;;31.70;39.30;;;30.79;42.11;101712.00;12244356;19;19951;-82
2023/09/08 11:46:27;;;;;;;;;;;31.80;40.10;;;30.95;41.85;101727.94;12241516;19;19927;-82
2023/09/08 11:50:29;;;;;;;;;;;31.90;40.70;;;30.99;42.13;101723.00;12243996;19;19927;-82
2023/09/08 11:54:32;;;;;;;;;;;31.90;39.90;;;31.02;41.90;101711.78;12244643;19;19910;-82
2023/09/08 11:58:34;;;;;;;;;;;31.90;39.80;;;31.04;41.80;101715.16;12236506;19;19925;-82
2023/09/08 12:02:36;;;;;;;;;;;31.90;40.00;;;31.15;41.63;101708.38;12245697;19;19922;-82
2023/09/08 12:06:39;;;;;;;;;;;32.00;40.40;;;31.14;41.36;101695.91;12246675;19;19915;-82
2023/09/08 12:10:41;;;;;;;;;;;32.00;38.30;;;31.23;41.14;101706.34;12249273;19;19919;-82
2023/09/08 12:14:43;;;;;;;;;;;32.00;38.60;;;31.28;41.14;101703.06;12248233;19;19922;-83
2023/09/08 12:18:45;;;;;;;;;;;32.10;40.00;;;31.33;41.33;101691.69;12250546;19;19919;-82
2023/09/08 12:22:50;;;;;;;;;;;32.10;40.40;;;31.44;40.99;101701.94;12247041;19;19922;-82
2023/09/08 12:26:52;;;;;;;;;;;32.20;38.80;;;31.41;41.36;101680.75;12245663;19;19923;-82
2023/09/08 12:30:53;;;;;;;;;;;32.30;40.00;;;31.48;41.17;101685.13;12248823;19;19921;-83
2023/09/08 12:34:55;;;;;;;;;;;32.30;39.90;;;31.60;40.71;101688.13;12244779;19;19918;-81
2023/09/08 12:38:56;;;;;;;;;;;32.40;39.50;;;31.60;41.04;101676.47;12246002;19;19937;-82
2023/09/08 12:42:58;;;;;;;;;;;32.40;39.90;;;31.59;40.51;101664.81;12248202;19;19915;-82
2023/09/08 12:47:00;;;;;;;;;;;32.50;39.70;;;31.68;40.76;101674.44;12245586;19;19922;-82
2023/09/08 12:51:02;;;;;;;;;;;32.50;39.60;;;31.73;40.36;101669.28;12247916;19;19932;-82
2023/09/08 12:55:04;;;;;;;;;;;32.50;39.70;;;31.76;40.63;101670.75;12249451;19;19931;-82
2023/09/08 12:59:05;;;;;;;;;;;32.50;38.40;;;31.79;40.14;101674.91;12247889;19;20530;-82
2023/09/08 13:03:07;;;;;;;;;;;32.50;39.30;;;31.82;40.35;101658.28;12249389;19;19926;-83
2023/09/08 13:07:08;;;;;;;;;;;32.50;39.60;;;31.85;40.01;101658.69;12246084;19;19994;-82
2023/09/08 13:11:09;;;;;;;;;;;32.60;39.10;;;31.90;40.15;101658.94;12252531;19;19923;-82
2023/09/08 13:15:11;;;;;;;;;;;32.60;39.10;;;31.89;39.85;101651.00;12248885;19;19918;-83
2023/09/08 13:19:13;;;;;;;;;;;32.60;37.40;;;31.85;40.00;101633.56;12250409;19;20246;-83
2023/09/08 13:23:14;;;;;;;;;;;32.60;38.90;;;31.94;39.82;101635.06;12250278;19;19978;-82
2023/09/08 13:27:17;;;;;;;;;;;32.60;38.10;;;31.94;39.54;101635.88;12244939;19;20304;-82
2023/09/08 13:31:22;;;;;;;;;;;32.60;38.00;;;31.68;39.47;101585.31;12244758;19;20262;-81
2023/09/08 13:35:24;;;;;;;;;;;32.60;37.90;;;31.98;39.33;101632.81;12244788;19;19923;-82
2023/09/08 13:39:26;;;;;;;;;;;32.60;38.60;;;31.99;39.16;101629.06;12247982;19;19982;-83
2023/09/08 13:43:28;;;;;;;;;;;32.70;38.00;;;31.93;39.21;101617.19;12244972;19;19918;-83
2023/09/08 13:47:29;;;;;;;;;;;32.70;38.70;;;31.98;39.50;101614.72;12242999;19;19982;-82
2023/09/08 13:51:31;;;;;;;;;;;32.70;38.60;;;32.02;39.31;101628.63;12242344;19;19915;-81
2023/09/08 13:55:33;;;;;;;;;;;32.70;38.20;;;32.02;38.88;101628.63;12243772;19;20325;-82
2023/09/08 13:59:34;;;;;;;;;;;32.70;38.30;;;32.02;39.24;101626.75;12244079;19;20861;-82
2023/09/08 14:03:36;;;;;;;;;;;32.60;38.50;;;32.01;38.88;101614.28;12245574;19;19919;-82
2023/09/08 14:07:38;;;;;;;;;;;32.60;38.20;;;32.01;38.95;101608.06;12246062;19;19919;-83
2023/09/08 14:11:39;;;;;;;;;;;32.60;37.00;;;32.03;39.04;101605.97;12242690;19;19922;-82
2023/09/08 14:15:41;;;;;;;;;;;32.70;38.20;;;32.03;38.48;101598.72;12242159;19;19922;-82
2023/09/08 14:19:42;;;;;;;;;;;32.60;38.50;;;31.99;38.48;101594.75;12242405;19;19930;-82
2023/09/08 14:23:43;;;;;;;;;;;32.60;37.70;;;32.00;38.65;101601.84;12244316;19;19910;-82
2023/09/08 14:27:45;;;;;;;;;;;32.60;37.50;;;32.01;38.68;101603.50;12241413;19;19911;-81
2023/09/08 14:31:47;;;;;;;;;;;32.60;37.80;;;32.01;38.52;101592.69;12243592;19;19923;-82
2023/09/08 14:35:51;;;;;;;;;;;32.60;38.00;;;32.05;38.16;101598.50;12241719;19;20063;-82
2023/09/08 14:39:53;;;;;;;;;;;32.60;38.10;;;32.05;38.40;101595.78;12242517;19;20354;-82
2023/09/08 14:43:54;;;;;;;;;;;32.60;38.20;;;32.00;38.17;101580.22;12244126;19;20363;-82
2023/09/08 14:47:56;;;;;;;;;;;32.60;38.00;;;32.09;38.16;101599.75;12241162;19;19923;-82
2023/09/08 14:51:58;;;;;;;;;;;32.60;37.90;;;32.07;38.13;101597.25;12244036;19;19911;-82
2023/09/08 14:55:59;;;;;;;;;;;32.60;36.50;;;32.03;37.92;101589.75;12240480;19;19953;-83
2023/09/08 15:00:03;;;;;;;;;;;32.70;37.80;;;32.07;38.20;101589.16;12242234;19;19923;-83
2023/09/08 15:04:06;;;;;;;;;;;32.60;38.00;;;31.96;37.59;101579.78;12242717;19;20238;-83
2023/09/08 15:08:07;;;;;;;;;;;32.70;37.80;;;32.05;37.88;101601.19;12240297;19;19923;-83
2023/09/08 15:12:09;;;;;;;;;;;32.60;36.60;;;31.99;37.75;101602.84;12241116;19;19931;-83
2023/09/08 15:16:11;;;;;;;;;;;32.60;37.80;;;31.94;37.90;101591.81;12238287;19;19940;-82
2023/09/08 15:20:14;;;;;;;;;;;32.50;37.50;;;31.90;37.95;101579.75;12241758;19;19919;-82
2023/09/08 15:24:15;;;;;;;;;;;32.50;37.70;;;31.88;37.68;101579.94;12245214;19;19996;-82
2023/09/08 15:28:17;;;;;;;;;;;32.40;37.80;;;31.89;37.76;101592.44;12249663;19;19978;-83
2023/09/08 15:32:18;;;;;;;;;;;32.40;37.70;;;31.85;37.48;101585.75;12252467;19;19942;-82
2023/09/08 15:36:19;;;;;;;;;;;32.40;37.40;;;31.73;37.38;101573.88;12247883;19;19921;-83
2023/09/08 15:40:21;;;;;;;;;;;32.30;37.60;;;31.80;37.54;101584.72;12251788;19;19978;-82
2023/09/08 15:44:23;;;;;;;;;;;32.20;37.10;;;31.72;37.67;101572.22;12250084;19;19922;-83
2023/09/08 15:48:24;;;;;;;;;;;32.20;37.60;;;31.74;37.57;101570.16;12249221;19;19918;-83
2023/09/08 15:52:26;;;;;;;;;;;32.20;37.60;;;31.75;37.17;101578.03;12252215;19;19919;-82
2023/09/08 15:56:27;;;;;;;;;;;32.20;37.60;;;31.75;37.34;101569.94;12247218;19;19922;-82
2023/09/08 16:00:30;;;;;;;;;;;32.20;38.20;;;31.72;37.50;101561.41;12250006;19;19936;-82
2023/09/08 16:04:32;;;;;;;;;;;32.20;37.40;;;31.66;37.50;101546.03;12248976;19;19923;-82
2023/09/08 16:08:34;;;;;;;;;;;32.20;37.70;;;31.59;37.14;101535.19;12249841;19;19919;-82
2023/09/08 16:12:35;;;;;;;;;;;32.10;37.80;;;31.67;37.39;101548.50;12249915;19;20577;-82
2023/09/08 16:16:39;;;;;;;;;;;32.10;37.40;;;31.65;37.09;101545.22;12245383;19;19926;-83
2023/09/08 16:20:40;;;;;;;;;;;32.10;37.80;;;31.63;37.40;101549.97;12251283;19;19923;-84
2023/09/08 16:24:42;;;;;;;;;;;32.10;37.80;;;31.58;37.12;101541.66;12250268;19;20286;-82
2023/09/08 16:28:43;;;;;;;;;;;32.00;37.90;;;31.52;37.31;101545.16;12248359;19;19918;-83
2023/09/08 16:32:46;;;;;;;;;;;31.90;37.80;;;31.46;37.33;101543.25;12242655;19;19934;-84
2023/09/08 16:36:47;;;;;;;;;;;31.90;38.00;;;31.38;37.29;101541.59;12244391;19;20261;-83
2023/09/08 16:40:49;;;;;;;;;;;31.80;38.20;;;31.29;36.95;101530.09;12249181;19;20017;-83
2023/09/08 16:44:50;;;;;;;;;;;31.70;38.30;;;31.22;37.09;101528.44;12246560;19;19923;-84
2023/09/08 16:48:52;;;;;;;;;;;31.60;38.30;;;31.00;36.95;101520.44;12249208;19;20014;-85
2023/09/08 16:52:53;;;;;;;;;;;31.50;38.30;;;31.03;37.27;101532.72;12247458;19;19918;-85
2023/09/08 16:56:54;;;;;;;;;;;31.40;38.30;;;30.89;37.01;101525.56;12246095;19;19911;-85
2023/09/08 17:00:56;;;;;;;;;;;31.30;38.40;;;30.68;36.93;101524.59;12248876;19;19923;-85
2023/09/08 17:04:57;;;;;;;;;;;31.10;38.40;;;30.64;37.21;101544.88;12248226;19;19919;-86
2023/09/08 17:08:59;;;;;;;;;;;31.00;38.40;;;30.47;37.23;101532.75;12248848;19;19903;-84
2023/09/08 17:13:00;;;;;;;;;;;30.80;38.40;;;30.32;37.17;101528.25;12247771;19;19929;-85
2023/09/08 17:17:02;;;;;;;;;;;30.70;38.50;;;30.25;37.25;101542.75;12250155;19;19919;-85
2023/09/08 17:21:03;;;;;;;;;;;30.60;38.50;;;30.08;37.06;101537.56;12259151;19;19942;-86
2023/09/08 17:25:05;;;;;;;;;;;30.40;38.50;;;29.91;37.24;101537.00;12259780;19;19919;-85
2023/09/08 17:29:09;;;;;;;;;;;30.20;38.40;;;29.65;37.07;101517.88;12259072;19;19943;-85
2023/09/08 17:33:11;;;;;;;;;;;30.10;38.40;;;29.66;37.21;101539.25;12260320;19;19936;-85
2023/09/08 17:37:12;;;;;;;;;;;30.00;38.50;;;29.46;37.14;101533.63;12255940;19;19922;-85
2023/09/08 17:41:14;;;;;;;;;;;29.80;38.50;;;29.40;37.35;101550.50;12246450;19;19923;-85
2023/09/08 17:45:15;;;;;;;;;;;29.60;38.50;;;29.25;37.54;101552.41;12239232;19;19915;-85
2023/09/08 17:49:17;;;;;;;;;;;29.40;38.50;;;29.09;37.46;101551.59;12246681;19;19925;-85
2023/09/08 17:53:18;;;;;;;;;;;29.30;38.60;;;28.98;37.24;101554.72;12247787;19;19919;-85
2023/09/08 17:57:19;;;;;;;;;;;29.10;38.50;;;28.82;37.53;101546.84;12244686;19;19922;-85
2023/09/08 18:01:21;;;;;;;;;;;29.00;38.60;;;28.66;37.59;101545.16;12246902;19;19929;-85
2023/09/08 18:05:22;;;;;;;;;;;28.80;38.60;;;28.45;37.46;101535.09;12245930;19;19907;-85
2023/09/08 18:09:24;;;;;;;;;;;28.70;38.60;;;28.34;37.79;101540.91;12243853;19;19918;-85